Pagina principale
METAR-TAF:

METAR-TAF

Aeroporti :

Napoli, Italia

Aeroporto di Napoli-Capodichino

latitudine: 40-51N, longitudine: 014-18E, altezza: 88 m

Osservazione

Il bollettino è stato emesso 22 minuti fa, alle 11:50 UTC
Vento 3 kt da sud, variando fra sud/sud-est e sud-ovest
Temperature 15°C
Umidità 55%
Pressione 1012 hPa
Visibilità 10 km o più
Poco nuvoloso ad un'altezza di 3000 ft
Nuvoloso ad un'altezza di 5000 ft

METAR: LIRN 191150Z 18003KT 150V230 9999 FEW030 BKN050 15/06 Q1012 NOSIG

Ora: 13:12 (12:12 UTC)

Previsione

Il bollettino è stato emesso 1 ora e 12 minuti fa, alle 11:00 UTC
Previsione valida dal 19 alle 12 UTC al 20 alle 12 UTC
Vento 10 kt da ovest
Visibilità 10 km o più
nessuna nube inferiore a 1500 m e nessun cumulonembo
Evoluzione graduale
dal 20 alle 00 UTC al 20 alle 03 UTC
Vento 10 kt da nord-est

TAF: LIRN 191100Z 1912/2012 28010KT CAVOK BECMG 2000/2003 04010KT

Osservazioni e previsioni meteorologiche di più di 4000 aeroporti (messaggi METAR e TAF).

Le stazioni disponibili sono rappresentate dai dischi gialli e rossi sulla carta.

Puntare il mouse per vedere il nome della stazione.

Clicca sopra per visualizzare le osservazioni e previsioni meteorologiche.

Per cambiare la mappa : fare clic sui pulsanti verdi con una croce nera per ingrandire, il pulsante verde con un trattino per diminuire, o sulla freccia verde per le mappe adiacenti.


METAR-TAF: